Ducklington, United Kingdom
Current Conditions -  °F | °C
As of 3:50 AM on Sunday 26 Oct 2014 (Local Time) from EGVN Reporting Station
Broken Clouds Broken Clouds  
Wind Chill: 54°   Ceiling: 3400
Heat Index: 54°   Visibility: 6mi
Dew Point: 45°   Wind: 9mph
Humidity: 72%   Direction: 220°SW
Pressure: 30.09"   Gusts: NA
Location:  51.77°N, 1.48°W
Report Text: EGVN 260250Z 22008KT 9999 BKN034 12/07 Q1019 BLU NOSIG
Loading
Personal Weather Stations






























Interactive Weather Map
Tropical Storm Tracking
New forecast layout! Learn more

10-Day Weather Forecast

Advertisements
Track Severe Weather on mobile